createdAt,value
2023-01-07T00:01:58.523Z,77.48
2023-01-07T00:04:25.935Z,77.68
2023-01-07T00:06:54.621Z,78.01
2023-01-07T00:09:22.041Z,77.87
2023-01-07T00:11:49.449Z,77.71
2023-01-07T00:14:16.849Z,77.66
2023-01-07T00:16:44.388Z,77.88
2023-01-07T00:19:13.578Z,77.98
2023-01-07T00:21:41.013Z,77.90
2023-01-07T00:24:10.635Z,78.04
2023-01-07T00:26:38.385Z,78.23
2023-01-07T00:29:06.531Z,78.17
2023-01-07T00:31:35.750Z,78.26
2023-01-07T00:34:09.747Z,78.27
2023-01-07T00:36:40.035Z,78.23
2023-01-07T00:39:10.061Z,78.39
2023-01-07T00:41:37.618Z,78.71
2023-01-07T00:44:05.503Z,78.68
2023-01-07T00:46:33.103Z,78.97
2023-01-07T00:49:01.388Z,78.77
2023-01-07T00:51:28.887Z,79.22
2023-01-07T00:53:56.312Z,78.97
2023-01-07T00:56:25.005Z,78.78
2023-01-07T00:58:52.565Z,79.02
2023-01-07T01:01:20.130Z,79.32
2023-01-07T01:03:47.603Z,79.15
2023-01-07T01:06:15.744Z,79.30
2023-01-07T01:08:43.618Z,79.02
2023-01-07T01:11:12.177Z,79.33
2023-01-07T01:13:41.018Z,79.10
2023-01-07T01:16:09.438Z,79.54
2023-01-07T01:18:36.934Z,79.60
2023-01-07T01:21:05.733Z,79.52
2023-01-07T01:23:33.206Z,79.23
2023-01-07T01:26:05.157Z,79.62
2023-01-07T01:28:32.835Z,79.40
2023-01-07T01:31:01.724Z,79.72
2023-01-07T01:33:36.845Z,79.39
2023-01-07T01:36:05.330Z,79.35
2023-01-07T01:38:32.769Z,79.49
2023-01-07T01:41:00.403Z,79.58
2023-01-07T01:43:30.565Z,79.88
2023-01-07T01:45:58.180Z,79.72
2023-01-07T01:48:26.924Z,79.66
2023-01-07T01:50:54.545Z,79.69
2023-01-07T01:53:23.150Z,79.78
2023-01-07T01:55:52.814Z,79.84
2023-01-07T01:58:24.185Z,79.65
2023-01-07T02:00:52.381Z,79.79
2023-01-07T02:03:21.109Z,79.64
2023-01-07T02:05:50.079Z,79.85
2023-01-07T02:08:23.172Z,79.65
2023-01-07T02:10:59.678Z,79.72
2023-01-07T02:13:33.496Z,79.70
2023-01-07T02:16:03.712Z,79.83
2023-01-07T02:18:40.688Z,79.66
2023-01-07T02:21:17.757Z,79.81
2023-01-07T02:24:10.250Z,79.95
2023-01-07T02:27:01.768Z,79.82
2023-01-07T02:29:56.605Z,79.93
2023-01-07T02:32:42.888Z,79.77
2023-01-07T02:35:15.476Z,80.06
2023-01-07T02:37:45.870Z,79.92
2023-01-07T02:40:16.320Z,79.86
2023-01-07T02:42:47.479Z,79.68
2023-01-07T02:45:17.031Z,80.01
2023-01-07T02:47:47.921Z,79.89
2023-01-07T02:50:15.392Z,80.13
2023-01-07T02:52:42.913Z,80.03
2023-01-07T02:55:12.914Z,79.86
2023-01-07T02:58:09.691Z,79.69
2023-01-07T03:00:45.601Z,79.97
2023-01-07T03:03:30.475Z,79.89
2023-01-07T03:06:03.381Z,79.85
2023-01-07T03:08:36.850Z,79.84
2023-01-07T03:11:05.229Z,79.64
2023-01-07T03:13:35.733Z,79.80
2023-01-07T03:16:04.443Z,79.32
2023-01-07T03:18:33.824Z,79.26
2023-01-07T03:21:02.304Z,79.17
2023-01-07T03:23:29.869Z,79.26
2023-01-07T03:25:59.927Z,79.21
2023-01-07T03:28:29.000Z,79.36
2023-01-07T03:30:57.467Z,79.32
2023-01-07T03:33:26.804Z,79.25
2023-01-07T03:35:55.762Z,79.27
2023-01-07T03:38:23.494Z,79.32
2023-01-07T03:40:51.952Z,79.38
2023-01-07T03:43:20.021Z,79.16
2023-01-07T03:45:47.710Z,79.43
2023-01-07T03:48:15.166Z,79.24
2023-01-07T03:50:42.617Z,79.27
2023-01-07T03:53:11.321Z,79.35
2023-01-07T03:55:39.386Z,79.52
2023-01-07T03:58:06.857Z,79.24
2023-01-07T04:00:34.339Z,79.32
2023-01-07T04:03:12.057Z,79.32
2023-01-07T04:05:42.816Z,79.29
2023-01-07T04:08:12.890Z,79.36
2023-01-07T04:10:41.360Z,79.38
2023-01-07T04:13:09.111Z,79.28
2023-01-07T04:15:37.327Z,79.23
2023-01-07T04:18:04.989Z,79.44
2023-01-07T04:20:32.925Z,79.39
2023-01-07T04:23:00.516Z,79.52
2023-01-07T04:25:29.296Z,79.64
2023-01-07T04:27:56.719Z,79.70
2023-01-07T04:30:24.767Z,80.17
2023-01-07T04:32:52.223Z,79.99
2023-01-07T04:35:19.637Z,80.02
2023-01-07T04:37:47.060Z,79.81
2023-01-07T04:40:14.498Z,80.00
2023-01-07T04:42:43.234Z,80.13
2023-01-07T04:45:11.437Z,80.30
2023-01-07T04:47:38.915Z,80.19
2023-01-07T04:50:08.013Z,80.30
2023-01-07T04:52:36.694Z,79.88
2023-01-07T04:55:05.410Z,79.99
2023-01-07T04:57:32.901Z,80.36
2023-01-07T05:00:01.850Z,80.39
2023-01-07T05:02:31.503Z,80.13
2023-01-07T05:04:58.950Z,79.95
2023-01-07T05:07:26.440Z,80.20
2023-01-07T05:09:53.904Z,79.96
2023-01-07T05:12:21.498Z,79.96
2023-01-07T05:14:49.198Z,80.15
2023-01-07T05:17:18.016Z,80.00
2023-01-07T05:19:46.063Z,79.91
2023-01-07T05:22:14.558Z,80.11
2023-01-07T05:24:42.549Z,80.05
2023-01-07T05:27:09.985Z,80.13
2023-01-07T05:29:38.342Z,80.30
2023-01-07T05:32:05.937Z,80.34
2023-01-07T05:34:35.218Z,80.06
2023-01-07T05:37:02.657Z,80.29
2023-01-07T05:39:30.932Z,80.21
2023-01-07T05:41:58.429Z,80.08
2023-01-07T05:44:26.552Z,80.05
2023-01-07T05:46:53.981Z,80.38
2023-01-07T05:49:21.398Z,79.88
2023-01-07T05:51:50.099Z,80.21
2023-01-07T05:54:17.526Z,80.08
2023-01-07T05:56:44.941Z,79.94
2023-01-07T05:59:12.370Z,80.06
2023-01-07T06:01:39.767Z,80.25
2023-01-07T06:04:07.575Z,79.95
2023-01-07T06:06:34.982Z,80.18
2023-01-07T06:09:03.747Z,80.16
2023-01-07T06:11:31.169Z,79.94
2023-01-07T06:13:58.582Z,79.78
2023-01-07T06:16:26.060Z,79.99
2023-01-07T06:18:53.472Z,80.01
2023-01-07T06:21:21.495Z,80.09
2023-01-07T06:23:48.921Z,79.93
2023-01-07T06:26:17.620Z,79.96
2023-01-07T06:28:45.068Z,79.76
2023-01-07T06:31:12.591Z,80.04
2023-01-07T06:33:40.659Z,79.80
2023-01-07T06:36:08.422Z,79.92
2023-01-07T06:38:36.005Z,79.95
2023-01-07T06:41:03.474Z,80.08
2023-01-07T06:43:32.189Z,79.81
2023-01-07T06:45:59.809Z,80.05
2023-01-07T06:48:27.308Z,79.90
2023-01-07T06:50:54.734Z,80.00
2023-01-07T06:53:22.178Z,79.71
2023-01-07T06:55:49.937Z,79.68
2023-01-07T06:58:17.342Z,79.65
2023-01-07T07:00:46.029Z,79.92
2023-01-07T07:03:13.443Z,79.72
2023-01-07T07:05:40.904Z,79.68
2023-01-07T07:08:08.501Z,79.60
2023-01-07T07:10:36.081Z,79.80
2023-01-07T07:13:03.515Z,79.92
2023-01-07T07:15:30.944Z,79.53
2023-01-07T07:17:59.665Z,79.49
2023-01-07T07:20:27.060Z,79.26
2023-01-07T07:22:54.469Z,78.92
2023-01-07T07:25:21.893Z,79.11
2023-01-07T07:27:49.368Z,78.84
2023-01-07T07:30:16.967Z,78.86
2023-01-07T07:32:44.423Z,78.78
2023-01-07T07:35:13.307Z,78.55
2023-01-07T07:37:40.758Z,78.50
2023-01-07T07:40:09.778Z,78.49
2023-01-07T07:43:11.849Z,78.15
2023-01-07T07:45:25.663Z,78.28
2023-01-07T07:47:53.071Z,78.28
2023-01-07T07:50:21.770Z,78.50
2023-01-07T07:52:49.216Z,78.42
2023-01-07T07:55:20.259Z,78.51
2023-01-07T07:57:54.083Z,78.69
2023-01-07T08:00:21.713Z,78.54
2023-01-07T08:02:49.136Z,78.51
2023-01-07T08:05:16.573Z,78.79
2023-01-07T08:07:45.379Z,78.31
2023-01-07T08:10:12.798Z,78.64
2023-01-07T08:12:40.250Z,78.54
2023-01-07T08:15:08.301Z,78.63
2023-01-07T08:17:36.207Z,78.31
2023-01-07T08:20:03.735Z,78.35
2023-01-07T08:22:31.147Z,78.97
2023-01-07T08:24:59.838Z,78.36
2023-01-07T08:27:27.912Z,78.54
2023-01-07T08:29:55.476Z,78.47
2023-01-07T08:32:23.117Z,78.68
2023-01-07T08:34:50.657Z,78.25
2023-01-07T08:37:18.075Z,78.58
2023-01-07T08:39:45.551Z,78.33
2023-01-07T08:42:14.283Z,78.93
2023-01-07T08:44:41.706Z,78.29
2023-01-07T08:47:09.116Z,78.12
2023-01-07T08:49:36.539Z,78.15
2023-01-07T08:52:03.943Z,78.24
2023-01-07T08:54:31.353Z,78.72
2023-01-07T08:56:58.880Z,78.59
2023-01-07T08:59:27.572Z,78.66
2023-01-07T09:01:55.138Z,78.38
2023-01-07T09:04:22.615Z,78.34
2023-01-07T09:06:50.071Z,78.34
2023-01-07T09:09:17.546Z,78.32
2023-01-07T09:11:44.975Z,78.25
2023-01-07T09:14:12.411Z,78.17
2023-01-07T09:16:41.572Z,77.97
2023-01-07T09:19:09.055Z,78.02
2023-01-07T09:21:36.472Z,78.22
2023-01-07T09:24:03.896Z,78.01
2023-01-07T09:26:31.379Z,77.89
2023-01-07T09:28:58.896Z,77.92
2023-01-07T09:31:26.360Z,78.08
2023-01-07T09:33:55.219Z,78.08
2023-01-07T09:36:22.740Z,77.85
2023-01-07T09:38:50.243Z,77.98
2023-01-07T09:41:29.553Z,77.59
2023-01-07T09:44:09.526Z,77.71
2023-01-07T09:46:36.982Z,77.62
2023-01-07T09:49:05.815Z,77.57
2023-01-07T09:51:35.814Z,77.56
2023-01-07T09:54:04.316Z,77.52
2023-01-07T09:56:32.495Z,77.56
2023-01-07T09:59:00.759Z,77.68
2023-01-07T10:01:31.115Z,77.60
2023-01-07T10:04:09.865Z,77.45
2023-01-07T10:06:43.815Z,77.61
2023-01-07T10:09:18.600Z,77.67
2023-01-07T10:11:49.340Z,77.46
2023-01-07T10:14:28.283Z,77.56
2023-01-07T10:16:57.847Z,77.33
2023-01-07T10:19:28.076Z,77.62
2023-01-07T10:21:56.954Z,77.63
2023-01-07T10:24:25.921Z,77.38
2023-01-07T10:26:54.908Z,77.36
2023-01-07T10:29:23.674Z,77.46
2023-01-07T10:31:51.206Z,77.73
2023-01-07T10:34:21.438Z,77.62
2023-01-07T10:36:55.999Z,77.74
2023-01-07T10:39:25.385Z,78.02
2023-01-07T10:41:57.828Z,77.95
2023-01-07T10:44:38.215Z,78.10
2023-01-07T10:47:09.680Z,79.17
2023-01-07T10:49:45.344Z,79.08
2023-01-07T10:52:23.746Z,78.95
2023-01-07T10:55:06.292Z,78.81
2023-01-07T10:57:33.737Z,78.90
2023-01-07T11:00:03.844Z,78.76
2023-01-07T11:02:31.484Z,78.59
2023-01-07T11:04:59.245Z,78.87
2023-01-07T11:07:32.787Z,78.79
2023-01-07T11:10:01.221Z,78.80
2023-01-07T11:12:32.253Z,79.04
2023-01-07T11:14:59.711Z,78.86
2023-01-07T11:17:30.088Z,78.43
2023-01-07T11:19:57.519Z,78.35
2023-01-07T11:22:36.370Z,78.18
2023-01-07T11:25:05.357Z,78.83
2023-01-07T11:27:33.626Z,78.55
2023-01-07T11:30:02.754Z,78.73
2023-01-07T11:32:31.447Z,78.68
2023-01-07T11:35:00.783Z,78.64
2023-01-07T11:37:38.146Z,78.60
2023-01-07T11:40:17.929Z,78.46
2023-01-07T11:42:48.278Z,78.72
2023-01-07T11:45:16.713Z,78.62
2023-01-07T11:47:48.425Z,78.43
2023-01-07T11:50:26.650Z,78.47
2023-01-07T11:52:59.990Z,78.56
2023-01-07T11:55:27.408Z,78.73
2023-01-07T11:58:03.474Z,76.72
2023-01-07T12:00:42.386Z,74.82
2023-01-07T12:03:11.736Z,73.37
2023-01-07T12:05:39.623Z,71.46
2023-01-07T12:08:08.372Z,70.27
2023-01-07T12:10:36.714Z,70.23
2023-01-07T12:13:05.252Z,68.19
2023-01-07T12:15:34.822Z,67.20
2023-01-07T12:18:18.951Z,67.13
2023-01-07T12:20:59.563Z,65.50
2023-01-07T12:23:31.336Z,66.18
2023-01-07T12:26:00.547Z,64.53
2023-01-07T12:28:33.845Z,64.01
2023-01-07T12:31:08.842Z,63.33
2023-01-07T12:33:44.556Z,63.33
2023-01-07T12:36:14.078Z,62.63
2023-01-07T12:38:44.748Z,62.95
2023-01-07T12:41:19.504Z,62.39
2023-01-07T12:43:56.483Z,62.39
2023-01-07T12:46:25.410Z,60.90
2023-01-07T12:49:04.763Z,61.15
2023-01-07T12:51:34.836Z,60.74
2023-01-07T12:54:05.801Z,61.51
2023-01-07T12:56:34.708Z,60.97
2023-01-07T12:59:03.656Z,60.68
2023-01-07T13:01:32.759Z,60.85
2023-01-07T13:04:07.867Z,60.36
2023-01-07T13:06:42.778Z,60.26
2023-01-07T13:09:16.429Z,60.09
2023-01-07T13:12:02.562Z,59.93
2023-01-07T13:14:32.509Z,59.99
2023-01-07T13:17:00.747Z,59.58
2023-01-07T13:19:28.142Z,59.82
2023-01-07T13:21:55.534Z,59.67
2023-01-07T13:24:55.177Z,59.34
2023-01-07T13:27:21.053Z,59.26
2023-01-07T13:30:06.841Z,59.28
2023-01-07T13:32:47.568Z,59.08
2023-01-07T13:35:22.271Z,59.25
2023-01-07T13:37:57.772Z,59.01
2023-01-07T13:40:49.793Z,58.63
2023-01-07T13:43:27.358Z,58.67
2023-01-07T13:45:56.240Z,58.67
2023-01-07T13:48:24.482Z,58.87
2023-01-07T13:50:57.303Z,58.92
2023-01-07T13:53:33.759Z,58.62
2023-01-07T13:56:40.180Z,58.34
2023-01-07T13:59:30.323Z,58.01
2023-01-07T14:02:18.028Z,57.88
2023-01-07T14:04:49.901Z,58.08
2023-01-07T14:07:17.855Z,57.87
2023-01-07T14:09:45.277Z,57.56
2023-01-07T14:12:48.206Z,57.19
2023-01-07T14:15:46.916Z,57.42
2023-01-07T14:18:40.349Z,56.92
2023-01-07T14:21:18.759Z,56.70
2023-01-07T14:23:53.023Z,56.56
2023-01-07T14:26:23.150Z,56.84
2023-01-07T14:29:02.191Z,56.36
2023-01-07T14:31:30.997Z,56.73
2023-01-07T14:33:59.349Z,56.18
2023-01-07T14:36:50.753Z,56.83
2023-01-07T14:39:30.586Z,56.70
2023-01-07T14:42:49.932Z,56.26
2023-01-07T14:45:54.733Z,55.79
2023-01-07T14:48:34.161Z,55.81
2023-01-07T14:51:20.652Z,56.59
2023-01-07T14:54:02.114Z,56.67
2023-01-07T14:56:34.751Z,56.75
2023-01-07T14:59:08.785Z,56.98
2023-01-07T15:01:53.139Z,57.11
2023-01-07T15:05:03.048Z,56.80
2023-01-07T15:07:32.215Z,56.41
2023-01-07T15:10:19.606Z,56.34
2023-01-07T15:13:08.249Z,56.13
2023-01-07T15:15:55.135Z,55.93
2023-01-07T15:18:22.797Z,55.99
2023-01-07T15:20:59.883Z,55.90
2023-01-07T15:23:28.906Z,56.02
2023-01-07T15:25:57.871Z,55.56
2023-01-07T15:28:32.165Z,55.57
2023-01-07T15:31:01.419Z,55.68
2023-01-07T15:33:39.000Z,55.40
2023-01-07T15:36:09.848Z,55.18
2023-01-07T15:38:38.996Z,55.99
2023-01-07T15:41:06.892Z,55.51
2023-01-07T15:43:34.386Z,55.09
2023-01-07T15:46:02.266Z,54.61
2023-01-07T15:48:29.713Z,54.65
2023-01-07T15:50:57.157Z,54.21
2023-01-07T15:53:26.466Z,54.47
2023-01-07T15:55:56.952Z,54.88
2023-01-07T15:58:26.623Z,54.84
2023-01-07T16:00:54.849Z,55.14
2023-01-07T16:03:22.391Z,54.63
2023-01-07T16:05:50.187Z,54.72
2023-01-07T16:08:18.859Z,54.88
2023-01-07T16:10:59.819Z,55.03
2023-01-07T16:13:27.250Z,54.97
2023-01-07T16:15:54.881Z,55.15
2023-01-07T16:18:22.338Z,54.99
2023-01-07T16:20:52.538Z,54.91
2023-01-07T16:23:21.321Z,54.73
2023-01-07T16:25:50.075Z,55.22
2023-01-07T16:28:20.350Z,55.06
2023-01-07T16:30:47.996Z,54.75
2023-01-07T16:33:16.937Z,54.74
2023-01-07T16:35:44.347Z,54.88
2023-01-07T16:38:11.780Z,54.81
2023-01-07T16:40:39.231Z,54.70
2023-01-07T16:43:30.482Z,54.88
2023-01-07T16:46:08.988Z,54.60
2023-01-07T16:48:36.459Z,54.48
2023-01-07T16:51:03.910Z,54.42
2023-01-07T16:53:32.347Z,54.09
2023-01-07T16:56:15.913Z,54.49
2023-01-07T16:58:48.782Z,54.32
2023-01-07T17:01:18.319Z,54.22
2023-01-07T17:03:48.349Z,54.40
2023-01-07T17:06:15.810Z,54.51
2023-01-07T17:08:48.640Z,54.37
2023-01-07T17:11:21.007Z,54.71
2023-01-07T17:13:49.738Z,54.49
2023-01-07T17:16:30.907Z,54.24
2023-01-07T17:18:58.686Z,54.05
2023-01-07T17:21:42.573Z,54.30
2023-01-07T17:24:47.595Z,54.00
2023-01-07T17:27:21.903Z,53.84
2023-01-07T17:29:50.615Z,54.10
2023-01-07T17:32:18.048Z,54.13
2023-01-07T17:34:45.457Z,54.13
2023-01-07T17:37:14.591Z,54.42
2023-01-07T17:39:42.092Z,54.21
2023-01-07T17:42:34.761Z,53.80
2023-01-07T17:45:03.481Z,53.75
2023-01-07T17:47:32.082Z,53.43
2023-01-07T17:50:01.338Z,53.52
2023-01-07T17:52:29.330Z,53.54
2023-01-07T17:54:56.781Z,53.29
2023-01-07T17:57:24.185Z,53.42
2023-01-07T17:59:51.819Z,53.77
2023-01-07T18:02:20.755Z,53.53
2023-01-07T18:04:48.271Z,53.46
2023-01-07T18:07:15.870Z,53.55
2023-01-07T18:09:44.416Z,53.33
2023-01-07T18:12:30.156Z,53.70
2023-01-07T18:14:58.226Z,53.66
2023-01-07T18:17:27.047Z,53.91
2023-01-07T18:19:54.558Z,53.43
2023-01-07T18:22:22.052Z,53.79
2023-01-07T18:24:49.573Z,53.67
2023-01-07T18:27:18.087Z,53.29
2023-01-07T18:29:45.505Z,53.95
2023-01-07T18:32:12.940Z,53.67
2023-01-07T18:34:41.629Z,53.60
2023-01-07T18:37:09.068Z,53.93
2023-01-07T18:39:36.484Z,54.08
2023-01-07T18:42:04.450Z,54.18
2023-01-07T18:44:31.860Z,53.85
2023-01-07T18:46:59.282Z,53.85
2023-01-07T18:49:26.691Z,53.80
2023-01-07T18:51:55.425Z,54.02
2023-01-07T18:54:22.823Z,54.20
2023-01-07T18:56:50.321Z,54.06
2023-01-07T18:59:17.790Z,53.90
2023-01-07T19:01:45.356Z,54.07
2023-01-07T19:04:12.904Z,54.16
2023-01-07T19:06:40.551Z,54.25
2023-01-07T19:09:09.255Z,54.76
2023-01-07T19:11:38.195Z,54.89
2023-01-07T19:14:05.612Z,55.17
2023-01-07T19:16:33.141Z,55.23
2023-01-07T19:19:00.743Z,55.35
2023-01-07T19:21:28.695Z,55.44
2023-01-07T19:23:56.154Z,55.57
2023-01-07T19:26:26.296Z,55.95
2023-01-07T19:28:53.739Z,55.85
2023-01-07T19:31:21.242Z,56.02
2023-01-07T19:33:48.711Z,56.19
2023-01-07T19:36:17.879Z,56.21
2023-01-07T19:38:46.345Z,56.37
2023-01-07T19:41:14.851Z,56.32
2023-01-07T19:43:45.662Z,56.44
2023-01-07T19:46:14.332Z,56.54
2023-01-07T19:48:42.116Z,56.93
2023-01-07T19:51:09.604Z,56.91
2023-01-07T19:53:37.049Z,56.78
2023-01-07T19:56:05.769Z,56.91
2023-01-07T19:58:33.414Z,56.83
2023-01-07T20:01:04.095Z,57.07
2023-01-07T20:03:32.338Z,57.26
2023-01-07T20:06:03.712Z,57.23
2023-01-07T20:08:31.142Z,57.25
2023-01-07T20:10:58.841Z,57.19
2023-01-07T20:13:26.344Z,57.29
2023-01-07T20:15:53.799Z,57.40
2023-01-07T20:18:22.677Z,57.56
2023-01-07T20:20:56.619Z,57.46
2023-01-07T20:23:24.099Z,57.67
2023-01-07T20:25:51.597Z,57.64
2023-01-07T20:28:19.011Z,57.68
2023-01-07T20:30:46.491Z,57.74
2023-01-07T20:33:13.891Z,57.87
2023-01-07T20:35:43.127Z,57.66
2023-01-07T20:38:11.403Z,57.91
2023-01-07T20:40:39.258Z,57.74
2023-01-07T20:43:07.006Z,57.80
2023-01-07T20:45:36.813Z,57.91
2023-01-07T20:48:05.711Z,57.85
2023-01-07T20:50:35.688Z,58.19
2023-01-07T20:53:04.486Z,58.13
2023-01-07T20:55:32.052Z,58.11
2023-01-07T20:57:59.478Z,58.30
2023-01-07T21:00:26.990Z,58.10
2023-01-07T21:02:54.486Z,58.16
2023-01-07T21:05:24.373Z,58.14
2023-01-07T21:07:52.035Z,58.31
2023-01-07T21:10:20.828Z,58.38
2023-01-07T21:12:48.305Z,58.12
2023-01-07T21:15:15.821Z,58.10
2023-01-07T21:17:43.338Z,58.47
2023-01-07T21:20:13.202Z,58.35
2023-01-07T21:22:40.698Z,58.30
2023-01-07T21:25:11.195Z,58.63
2023-01-07T21:27:40.199Z,58.54
2023-01-07T21:30:08.532Z,58.45
2023-01-07T21:32:36.052Z,58.50
2023-01-07T21:35:03.482Z,58.82
2023-01-07T21:37:30.893Z,58.73
2023-01-07T21:39:58.586Z,58.50
2023-01-07T21:42:25.996Z,58.65
2023-01-07T21:44:54.685Z,58.73
2023-01-07T21:47:22.093Z,58.72
2023-01-07T21:49:49.581Z,58.68
2023-01-07T21:52:17.037Z,58.63
2023-01-07T21:54:44.426Z,58.74
2023-01-07T21:57:11.846Z,58.68
2023-01-07T21:59:39.252Z,58.82
2023-01-07T22:02:08.041Z,58.96
2023-01-07T22:04:35.560Z,59.13
2023-01-07T22:07:02.967Z,58.89
2023-01-07T22:09:30.382Z,59.12
2023-01-07T22:11:57.795Z,58.99
2023-01-07T22:14:26.184Z,59.10
2023-01-07T22:16:53.990Z,59.31
2023-01-07T22:19:25.753Z,59.01
2023-01-07T22:21:53.572Z,59.24
2023-01-07T22:24:20.982Z,59.23
2023-01-07T22:26:48.486Z,59.41
2023-01-07T22:29:16.092Z,59.53
2023-01-07T22:31:46.184Z,59.36
2023-01-07T22:34:13.629Z,59.43
2023-01-07T22:36:44.041Z,59.45
2023-01-07T22:39:14.143Z,59.28
2023-01-07T22:41:41.555Z,59.41
2023-01-07T22:44:10.136Z,59.37
2023-01-07T22:46:37.563Z,59.34
2023-01-07T22:49:04.995Z,59.46
2023-01-07T22:51:35.566Z,59.44
2023-01-07T22:54:05.386Z,59.46
2023-01-07T22:56:33.217Z,59.33
2023-01-07T22:59:00.651Z,59.62
2023-01-07T23:01:28.159Z,59.56
2023-01-07T23:03:55.672Z,59.67
2023-01-07T23:06:23.143Z,59.41
2023-01-07T23:08:50.639Z,59.54
2023-01-07T23:11:33.368Z,59.28
2023-01-07T23:14:00.810Z,59.46
2023-01-07T23:16:28.749Z,59.41
2023-01-07T23:18:56.199Z,59.49
2023-01-07T23:21:23.603Z,59.40
2023-01-07T23:23:51.034Z,59.65
2023-01-07T23:26:19.753Z,59.24
2023-01-07T23:28:47.189Z,59.42
2023-01-07T23:31:14.821Z,59.06
2023-01-07T23:33:42.265Z,59.41
2023-01-07T23:36:10.553Z,59.52
2023-01-07T23:38:37.977Z,59.58
2023-01-07T23:41:06.443Z,59.57
2023-01-07T23:43:35.432Z,59.44
2023-01-07T23:46:03.809Z,59.52
2023-01-07T23:48:31.954Z,59.55
2023-01-07T23:51:05.334Z,59.48
2023-01-07T23:53:32.757Z,59.72
2023-01-07T23:56:00.195Z,59.42
2023-01-07T23:58:27.626Z,59.81
